createdAt,value
2022-07-25T00:00:38.206Z,9.70
2022-07-25T00:01:38.269Z,9.50
2022-07-25T00:02:38.176Z,9.40
2022-07-25T00:03:38.164Z,9.10
2022-07-25T00:04:38.199Z,9.10
2022-07-25T00:05:38.216Z,8.60
2022-07-25T00:06:38.115Z,8.60
2022-07-25T00:07:38.102Z,8.80
2022-07-25T00:08:38.083Z,7.90
2022-07-25T00:09:38.073Z,8.80
2022-07-25T00:10:38.052Z,8.30
2022-07-25T00:11:38.039Z,8.30
2022-07-25T00:12:38.023Z,8.60
2022-07-25T00:13:38.007Z,8.30
2022-07-25T00:14:37.991Z,9.30
2022-07-25T00:15:38.019Z,9.20
2022-07-25T00:16:38.079Z,8.80
2022-07-25T00:17:37.948Z,9.20
2022-07-25T00:18:37.934Z,9.00
2022-07-25T00:19:37.917Z,9.30
2022-07-25T00:20:37.899Z,8.90
2022-07-25T00:21:37.887Z,9.20
2022-07-25T00:22:37.868Z,8.70
2022-07-25T00:23:37.853Z,8.50
2022-07-25T00:24:37.837Z,8.10
2022-07-25T00:25:37.822Z,8.70
2022-07-25T00:26:40.235Z,8.20
2022-07-25T00:27:37.790Z,8.50
2022-07-25T00:28:37.773Z,9.30
2022-07-25T00:29:37.761Z,8.80
2022-07-25T00:30:37.745Z,8.90
2022-07-25T00:31:38.038Z,8.50
2022-07-25T00:32:37.711Z,8.60
2022-07-25T00:33:37.699Z,8.70
2022-07-25T00:34:37.680Z,8.30
2022-07-25T00:35:37.666Z,8.40
2022-07-25T00:36:37.650Z,9.10
2022-07-25T00:37:37.642Z,9.30
2022-07-25T00:38:37.618Z,8.60
2022-07-25T00:39:37.607Z,8.90
2022-07-25T00:40:37.595Z,8.60
2022-07-25T00:41:37.574Z,8.40
2022-07-25T00:42:37.558Z,8.30
2022-07-25T00:43:37.541Z,9.00
2022-07-25T00:44:37.526Z,8.40
2022-07-25T00:45:37.510Z,8.60
2022-07-25T00:46:37.533Z,8.70
2022-07-25T00:47:37.481Z,8.80
2022-07-25T00:48:37.505Z,8.20
2022-07-25T00:49:37.450Z,8.50
2022-07-25T00:50:37.431Z,8.10
2022-07-25T00:51:37.415Z,8.60
2022-07-25T00:52:37.400Z,7.60
2022-07-25T00:53:37.388Z,8.10
2022-07-25T00:54:37.370Z,7.90
2022-07-25T00:55:37.360Z,7.90
2022-07-25T00:56:37.344Z,7.90
2022-07-25T00:57:37.324Z,8.00
2022-07-25T00:58:37.307Z,7.90
2022-07-25T00:59:37.291Z,7.80
2022-07-25T01:00:37.277Z,7.40
2022-07-25T01:01:37.340Z,7.80
2022-07-25T01:02:37.288Z,7.80
2022-07-25T01:03:37.228Z,7.20
2022-07-25T01:04:37.215Z,7.90
2022-07-25T01:05:37.201Z,7.40
2022-07-25T01:06:37.182Z,7.40
2022-07-25T01:07:37.168Z,7.80
2022-07-25T01:08:37.153Z,7.50
2022-07-25T01:09:37.138Z,7.10
2022-07-25T01:10:37.125Z,7.60
2022-07-25T01:11:37.106Z,7.70
2022-07-25T01:12:37.088Z,7.70
2022-07-25T01:13:37.076Z,7.50
2022-07-25T01:14:37.058Z,7.50
2022-07-25T01:15:37.112Z,8.00
2022-07-25T01:16:37.037Z,7.40
2022-07-25T01:17:37.014Z,7.60
2022-07-25T01:18:36.992Z,8.10
2022-07-25T01:19:36.979Z,7.50
2022-07-25T01:20:36.961Z,7.80
2022-07-25T01:21:36.949Z,7.50
2022-07-25T01:22:36.932Z,8.30
2022-07-25T01:23:36.916Z,7.70
2022-07-25T01:24:36.902Z,7.90
2022-07-25T01:25:36.892Z,7.90
2022-07-25T01:26:36.869Z,8.60
2022-07-25T01:27:36.865Z,7.50
2022-07-25T01:28:36.838Z,8.00
2022-07-25T01:29:36.824Z,8.10
2022-07-25T01:30:36.846Z,7.90
2022-07-25T01:31:36.894Z,8.40
2022-07-25T01:32:36.777Z,8.10
2022-07-25T01:33:36.761Z,8.90
2022-07-25T01:34:36.744Z,8.80
2022-07-25T01:35:41.533Z,8.30
2022-07-25T01:36:36.713Z,8.00
2022-07-25T01:37:36.700Z,8.30
2022-07-25T01:38:36.679Z,8.60
2022-07-25T01:39:36.667Z,8.00
2022-07-25T01:40:36.653Z,8.20
2022-07-25T01:41:36.641Z,8.20
2022-07-25T01:42:36.618Z,8.10
2022-07-25T01:43:36.606Z,8.30
2022-07-25T01:44:36.589Z,8.80
2022-07-25T01:45:36.574Z,7.80
2022-07-25T01:46:36.667Z,7.80
2022-07-25T01:47:36.542Z,7.90
2022-07-25T01:48:36.575Z,8.40
2022-07-25T01:49:36.510Z,8.80
2022-07-25T01:50:36.496Z,8.20
2022-07-25T01:51:36.484Z,7.50
2022-07-25T01:52:36.462Z,9.00
2022-07-25T01:53:36.448Z,8.60
2022-07-25T01:54:36.429Z,8.80
2022-07-25T01:55:36.421Z,9.00
2022-07-25T01:56:36.397Z,8.70
2022-07-25T01:57:36.390Z,8.10
2022-07-25T01:58:36.376Z,9.00
2022-07-25T01:59:36.356Z,8.40
2022-07-25T02:00:36.337Z,8.70
2022-07-25T02:01:36.418Z,8.50
2022-07-25T02:02:36.305Z,8.80
2022-07-25T02:03:36.290Z,8.40
2022-07-25T02:04:36.355Z,8.10
2022-07-25T02:05:36.261Z,8.30
2022-07-25T02:06:36.251Z,8.30
2022-07-25T02:07:36.226Z,8.30
2022-07-25T02:08:36.210Z,8.40
2022-07-25T02:09:36.199Z,8.40
2022-07-25T02:10:36.184Z,8.00
2022-07-25T02:11:36.168Z,7.90
2022-07-25T02:12:36.148Z,8.60
2022-07-25T02:13:36.133Z,8.80
2022-07-25T02:14:36.115Z,8.50
2022-07-25T02:15:36.101Z,9.00
2022-07-25T02:16:36.132Z,8.10
2022-07-25T02:17:36.071Z,8.20
2022-07-25T02:18:36.052Z,8.60
2022-07-25T02:19:36.039Z,8.30
2022-07-25T02:20:36.021Z,7.90
2022-07-25T02:21:36.007Z,8.30
2022-07-25T02:22:35.997Z,8.50
2022-07-25T02:23:35.974Z,8.50
2022-07-25T02:24:35.958Z,8.90
2022-07-25T02:25:35.944Z,8.60
2022-07-25T02:26:35.925Z,8.90
2022-07-25T02:27:35.913Z,8.20
2022-07-25T02:28:35.894Z,7.90
2022-07-25T02:29:35.880Z,8.40
2022-07-25T02:30:35.952Z,8.50
2022-07-25T02:31:35.847Z,8.50
2022-07-25T02:32:35.832Z,8.70
2022-07-25T02:33:35.819Z,7.80
2022-07-25T02:34:35.802Z,8.20
2022-07-25T02:35:35.787Z,9.00
2022-07-25T02:36:35.768Z,9.40
2022-07-25T02:37:35.751Z,9.20
2022-07-25T02:38:35.739Z,9.40
2022-07-25T02:39:35.720Z,9.10
2022-07-25T02:40:35.703Z,9.00
2022-07-25T02:41:35.689Z,9.10
2022-07-25T02:42:35.672Z,9.20
2022-07-25T02:43:35.660Z,9.10
2022-07-25T02:44:35.643Z,9.50
2022-07-25T02:45:35.674Z,9.60
2022-07-25T02:46:35.658Z,9.10
2022-07-25T02:47:35.601Z,9.20
2022-07-25T02:48:35.651Z,9.70
2022-07-25T02:49:35.563Z,9.00
2022-07-25T02:50:35.548Z,9.70
2022-07-25T02:51:35.533Z,9.70
2022-07-25T02:52:35.517Z,9.50
2022-07-25T02:53:56.209Z,9.30
2022-07-25T02:54:35.482Z,9.20
2022-07-25T02:55:35.473Z,9.10
2022-07-25T02:56:35.457Z,9.10
2022-07-25T02:57:35.436Z,9.50
2022-07-25T02:58:35.419Z,9.80
2022-07-25T02:59:35.404Z,9.60
2022-07-25T03:00:35.391Z,9.50
2022-07-25T03:01:35.425Z,9.40
2022-07-25T03:02:35.358Z,8.90
2022-07-25T03:03:35.363Z,9.50
2022-07-25T03:04:35.410Z,9.80
2022-07-25T03:05:35.310Z,9.80
2022-07-25T03:06:35.293Z,10.20
2022-07-25T03:07:35.279Z,9.80
2022-07-25T03:08:35.266Z,9.80
2022-07-25T03:09:35.250Z,9.70
2022-07-25T03:10:35.233Z,9.10
2022-07-25T03:11:35.216Z,9.70
2022-07-25T03:12:35.198Z,9.60
2022-07-25T03:13:35.185Z,9.50
2022-07-25T03:14:35.171Z,9.80
2022-07-25T03:15:35.152Z,9.70
2022-07-25T03:16:35.156Z,9.50
2022-07-25T03:17:35.118Z,10.10
2022-07-25T03:18:35.104Z,9.50
2022-07-25T03:19:35.087Z,9.20
2022-07-25T03:20:35.076Z,9.20
2022-07-25T03:21:35.053Z,9.10
2022-07-25T03:22:35.041Z,9.00
2022-07-25T03:23:35.023Z,9.30
2022-07-25T03:24:35.009Z,9.60
2022-07-25T03:25:34.992Z,9.40
2022-07-25T03:26:34.979Z,9.90
2022-07-25T03:27:34.960Z,9.30
2022-07-25T03:28:34.946Z,9.60
2022-07-25T03:29:34.928Z,10.10
2022-07-25T03:30:34.913Z,9.30
2022-07-25T03:31:34.940Z,10.00
2022-07-25T03:32:34.882Z,9.60
2022-07-25T03:33:34.865Z,9.90
2022-07-25T03:34:34.847Z,9.70
2022-07-25T03:35:35.286Z,9.20
2022-07-25T03:36:34.819Z,8.90
2022-07-25T03:37:34.799Z,9.20
2022-07-25T03:38:34.786Z,8.70
2022-07-25T03:39:34.769Z,8.90
2022-07-25T03:40:34.755Z,8.60
2022-07-25T03:41:34.738Z,9.10
2022-07-25T03:42:35.583Z,8.90
2022-07-25T03:43:34.703Z,8.80
2022-07-25T03:44:34.690Z,9.20
2022-07-25T03:45:34.756Z,9.20
2022-07-25T03:46:34.662Z,8.90
2022-07-25T03:47:34.639Z,8.90
2022-07-25T03:48:34.679Z,9.50
2022-07-25T03:49:34.607Z,9.30
2022-07-25T03:50:34.592Z,9.10
2022-07-25T03:51:34.576Z,9.50
2022-07-25T03:52:34.563Z,8.90
2022-07-25T03:53:34.545Z,9.20
2022-07-25T03:54:34.532Z,9.30
2022-07-25T03:55:34.514Z,8.70
2022-07-25T03:56:34.497Z,8.30
2022-07-25T03:57:34.482Z,8.40
2022-07-25T03:58:34.466Z,9.10
2022-07-25T03:59:34.449Z,8.70
2022-07-25T04:00:34.433Z,8.70
2022-07-25T04:01:34.454Z,8.80
2022-07-25T04:02:34.535Z,8.90
2022-07-25T04:03:34.385Z,8.20
2022-07-25T04:04:34.370Z,7.90
2022-07-25T04:05:34.352Z,8.90
2022-07-25T04:06:34.336Z,8.20
2022-07-25T04:07:34.321Z,8.30
2022-07-25T04:08:34.307Z,8.70
2022-07-25T04:09:34.288Z,8.60
2022-07-25T04:10:34.272Z,8.50
2022-07-25T04:11:34.255Z,8.40
2022-07-25T04:12:34.240Z,8.40
2022-07-25T04:13:34.226Z,9.10
2022-07-25T04:14:34.209Z,8.10
2022-07-25T04:15:34.193Z,8.20
2022-07-25T04:16:34.229Z,8.50
2022-07-25T04:17:34.161Z,8.20
2022-07-25T04:18:34.303Z,7.90
2022-07-25T04:19:34.127Z,8.40
2022-07-25T04:20:34.114Z,8.80
2022-07-25T04:21:34.098Z,8.20
2022-07-25T04:22:34.081Z,8.60
2022-07-25T04:23:34.065Z,7.70
2022-07-25T04:24:34.053Z,7.90
2022-07-25T04:25:34.032Z,7.80
2022-07-25T04:26:34.020Z,8.50
2022-07-25T04:27:34.003Z,8.00
2022-07-25T04:28:33.988Z,7.90
2022-07-25T04:29:33.970Z,8.20
2022-07-25T04:30:33.956Z,8.00
2022-07-25T04:31:33.990Z,8.00
2022-07-25T04:32:33.926Z,7.80
2022-07-25T04:33:33.907Z,7.70
2022-07-25T04:34:33.894Z,7.90
2022-07-25T04:35:33.876Z,8.40
2022-07-25T04:36:33.862Z,8.20
2022-07-25T04:37:33.845Z,8.70
2022-07-25T04:38:33.831Z,8.20
2022-07-25T04:39:33.809Z,7.70
2022-07-25T04:40:33.797Z,8.10
2022-07-25T04:41:33.777Z,8.30
2022-07-25T04:42:33.769Z,8.40
2022-07-25T04:43:33.746Z,8.00
2022-07-25T04:44:33.732Z,8.00
2022-07-25T04:45:33.787Z,8.20
2022-07-25T04:46:33.701Z,7.60
2022-07-25T04:47:33.685Z,8.00
2022-07-25T04:48:33.728Z,7.90
2022-07-25T04:49:33.654Z,8.00
2022-07-25T04:50:33.636Z,8.50
2022-07-25T04:51:33.622Z,7.80
2022-07-25T04:52:33.610Z,8.20
2022-07-25T04:53:33.589Z,7.40
2022-07-25T04:54:33.576Z,7.60
2022-07-25T04:55:33.558Z,8.10
2022-07-25T04:56:33.543Z,7.90
2022-07-25T04:57:33.528Z,8.10
2022-07-25T04:58:33.509Z,8.00
2022-07-25T04:59:33.492Z,7.90
2022-07-25T05:00:33.572Z,7.60
2022-07-25T05:01:33.501Z,7.90
2022-07-25T05:02:33.493Z,7.00
2022-07-25T05:03:33.428Z,7.80
2022-07-25T05:04:33.417Z,8.20
2022-07-25T05:05:33.398Z,7.20
2022-07-25T05:06:33.387Z,7.50
2022-07-25T05:07:33.369Z,8.00
2022-07-25T05:08:33.352Z,7.90
2022-07-25T05:09:33.336Z,8.00
2022-07-25T05:10:33.327Z,7.90
2022-07-25T05:11:33.310Z,7.80
2022-07-25T05:12:33.288Z,7.90
2022-07-25T05:13:33.276Z,8.20
2022-07-25T05:14:33.257Z,7.80
2022-07-25T05:15:33.241Z,6.90
2022-07-25T05:16:33.320Z,7.40
2022-07-25T05:17:33.211Z,7.50
2022-07-25T05:18:33.193Z,7.90
2022-07-25T05:19:33.179Z,7.40
2022-07-25T05:20:33.168Z,7.60
2022-07-25T05:21:33.145Z,8.00
2022-07-25T05:22:33.131Z,7.50
2022-07-25T05:23:33.115Z,7.80
2022-07-25T05:24:33.103Z,7.30
2022-07-25T05:25:33.087Z,7.60
2022-07-25T05:26:33.071Z,7.00
2022-07-25T05:27:33.053Z,7.50
2022-07-25T05:28:33.058Z,7.40
2022-07-25T05:29:33.022Z,7.70
2022-07-25T05:30:37.832Z,7.40
2022-07-25T05:31:33.031Z,7.40
2022-07-25T05:32:33.008Z,7.30
2022-07-25T05:33:32.958Z,7.80
2022-07-25T05:34:32.945Z,7.40
2022-07-25T05:35:32.928Z,7.20
2022-07-25T05:36:32.912Z,7.30
2022-07-25T05:37:32.896Z,7.70
2022-07-25T05:38:32.879Z,7.20
2022-07-25T05:39:32.864Z,6.70
2022-07-25T05:40:32.851Z,7.20
2022-07-25T05:41:32.833Z,7.50
2022-07-25T05:42:32.818Z,7.10
2022-07-25T05:43:32.803Z,7.40
2022-07-25T05:44:32.828Z,7.20
2022-07-25T05:45:32.770Z,7.30
2022-07-25T05:46:32.869Z,7.20
2022-07-25T05:47:32.897Z,7.30
2022-07-25T05:48:32.833Z,7.40
2022-07-25T05:49:32.817Z,7.10
2022-07-25T05:50:32.720Z,7.20
2022-07-25T05:51:32.734Z,7.40
2022-07-25T05:52:32.739Z,7.30
2022-07-25T05:53:32.647Z,7.30
2022-07-25T05:54:32.633Z,7.50
2022-07-25T05:55:32.613Z,7.40
2022-07-25T05:56:32.603Z,7.00
2022-07-25T05:57:32.585Z,6.90
2022-07-25T05:58:32.568Z,7.50
2022-07-25T05:59:32.551Z,7.10
2022-07-25T06:00:32.539Z,6.70
2022-07-25T06:01:32.556Z,7.20
2022-07-25T06:02:32.753Z,6.90
2022-07-25T06:03:32.493Z,7.20
2022-07-25T06:04:32.476Z,7.40
2022-07-25T06:05:32.461Z,7.60
2022-07-25T06:06:32.445Z,7.00
2022-07-25T06:07:32.497Z,7.40
2022-07-25T06:08:32.416Z,7.20
2022-07-25T06:09:32.400Z,7.50
2022-07-25T06:10:32.385Z,7.10
2022-07-25T06:11:32.705Z,7.40
2022-07-25T06:12:32.431Z,6.90
2022-07-25T06:13:32.337Z,7.10
2022-07-25T06:14:32.354Z,7.40
2022-07-25T06:15:32.309Z,7.30
2022-07-25T06:16:32.338Z,7.00
2022-07-25T06:17:32.819Z,7.10
2022-07-25T06:18:32.259Z,6.90
2022-07-25T06:19:32.243Z,7.40
2022-07-25T06:20:32.229Z,7.30
2022-07-25T06:21:32.214Z,6.70
2022-07-25T06:22:32.198Z,6.90
2022-07-25T06:23:32.181Z,6.40
2022-07-25T06:24:32.169Z,6.80
2022-07-25T06:25:32.153Z,6.70
2022-07-25T06:26:32.141Z,7.20
2022-07-25T06:27:32.121Z,6.30
2022-07-25T06:28:32.107Z,6.20
2022-07-25T06:29:32.095Z,6.70
2022-07-25T06:30:32.080Z,6.30
2022-07-25T06:31:32.138Z,6.70
2022-07-25T06:32:32.047Z,6.30
2022-07-25T06:33:32.027Z,6.40
2022-07-25T06:34:32.030Z,6.50
2022-07-25T06:35:32.003Z,6.30
2022-07-25T06:36:32.165Z,6.70
2022-07-25T06:37:31.968Z,6.30
2022-07-25T06:38:31.966Z,6.30
2022-07-25T06:39:31.938Z,6.20
2022-07-25T06:40:31.926Z,6.10
2022-07-25T06:41:31.909Z,6.40
2022-07-25T06:42:31.894Z,6.60
2022-07-25T06:43:31.879Z,6.30
2022-07-25T06:44:31.862Z,6.10
2022-07-25T06:45:31.848Z,6.40
2022-07-25T06:46:31.849Z,6.20
2022-07-25T06:47:35.883Z,6.30
2022-07-25T06:48:31.836Z,5.90
2022-07-25T06:49:31.788Z,6.10
2022-07-25T06:50:31.776Z,6.00
2022-07-25T06:51:31.759Z,6.00
2022-07-25T06:52:31.746Z,6.10
2022-07-25T06:53:31.725Z,6.00
2022-07-25T06:54:31.718Z,6.00
2022-07-25T06:55:31.696Z,5.60
2022-07-25T06:56:31.684Z,5.70
2022-07-25T06:57:31.670Z,5.80
2022-07-25T06:58:31.677Z,6.00
2022-07-25T06:59:31.636Z,6.30
2022-07-25T07:00:31.651Z,6.20
2022-07-25T07:01:31.636Z,6.20
2022-07-25T07:02:31.594Z,6.10
2022-07-25T07:03:31.597Z,6.30
2022-07-25T07:04:31.566Z,6.00
2022-07-25T07:05:31.550Z,6.30
2022-07-25T07:06:31.535Z,6.10
2022-07-25T07:07:31.516Z,6.50
2022-07-25T07:08:31.504Z,5.90
2022-07-25T07:09:31.487Z,5.90
2022-07-25T07:10:31.474Z,5.80
2022-07-25T07:11:31.458Z,6.40
2022-07-25T07:12:31.444Z,5.60
2022-07-25T07:13:31.430Z,6.60
2022-07-25T07:14:31.416Z,6.00
2022-07-25T07:15:31.401Z,5.40
2022-07-25T07:16:31.514Z,6.20
2022-07-25T07:17:31.372Z,5.70
2022-07-25T07:18:31.357Z,5.90
2022-07-25T07:19:31.340Z,5.60
2022-07-25T07:20:31.334Z,5.80
2022-07-25T07:21:31.339Z,5.80
2022-07-25T07:22:31.298Z,5.80
2022-07-25T07:23:31.285Z,6.00
2022-07-25T07:24:31.269Z,6.00
2022-07-25T07:25:31.257Z,6.10
2022-07-25T07:26:31.239Z,5.80
2022-07-25T07:27:31.228Z,6.00
2022-07-25T07:28:31.210Z,5.60
2022-07-25T07:29:31.197Z,6.30
2022-07-25T07:30:52.483Z,6.20
2022-07-25T07:31:31.241Z,5.90
2022-07-25T07:32:31.153Z,5.80
2022-07-25T07:33:31.139Z,5.90
2022-07-25T07:34:31.123Z,6.00
2022-07-25T07:35:31.112Z,6.20
2022-07-25T07:36:31.421Z,5.80
2022-07-25T07:37:36.555Z,6.00
2022-07-25T07:38:31.135Z,6.00
2022-07-25T07:39:31.104Z,5.80
2022-07-25T07:40:31.118Z,5.80
2022-07-25T07:41:31.100Z,5.70
2022-07-25T07:42:31.092Z,5.60
2022-07-25T07:43:31.001Z,6.20
2022-07-25T07:44:31.008Z,6.30
2022-07-25T07:45:30.974Z,6.30
2022-07-25T07:46:31.039Z,5.70
2022-07-25T07:47:30.962Z,5.80
2022-07-25T07:48:31.095Z,5.80
2022-07-25T07:49:30.913Z,5.90
2022-07-25T07:50:30.893Z,5.40
2022-07-25T07:51:30.880Z,5.80
2022-07-25T07:52:30.866Z,6.10
2022-07-25T07:53:30.851Z,5.50
2022-07-25T07:54:30.837Z,5.90
2022-07-25T07:55:30.826Z,6.00
2022-07-25T07:56:30.808Z,6.30
2022-07-25T07:57:30.797Z,6.00
2022-07-25T07:58:30.785Z,5.80
2022-07-25T07:59:30.767Z,5.90
2022-07-25T08:00:30.756Z,6.10
2022-07-25T08:01:30.782Z,5.70
2022-07-25T08:02:30.792Z,5.70
2022-07-25T08:03:30.711Z,5.30
2022-07-25T08:04:30.695Z,6.00
2022-07-25T08:05:30.682Z,6.00
2022-07-25T08:06:30.665Z,6.00
2022-07-25T08:07:30.654Z,5.80
2022-07-25T08:08:31.568Z,5.70
2022-07-25T08:09:30.747Z,5.50
2022-07-25T08:10:30.648Z,5.60
2022-07-25T08:11:30.596Z,5.80
2022-07-25T08:12:30.625Z,6.10
2022-07-25T08:13:30.812Z,6.00
2022-07-25T08:14:30.554Z,5.70
2022-07-25T08:15:30.541Z,6.10
2022-07-25T08:16:30.580Z,6.40
2022-07-25T08:17:30.512Z,5.90
2022-07-25T08:18:30.500Z,6.00
2022-07-25T08:19:30.493Z,5.80
2022-07-25T08:20:38.696Z,6.30
2022-07-25T08:21:30.460Z,5.80
2022-07-25T08:22:30.442Z,5.80
2022-07-25T08:23:30.429Z,5.90
2022-07-25T08:24:30.410Z,5.80
2022-07-25T08:25:30.439Z,5.80
2022-07-25T08:26:30.385Z,6.10
2022-07-25T08:27:30.370Z,6.20
2022-07-25T08:28:30.358Z,5.70
2022-07-25T08:29:30.342Z,5.50
2022-07-25T08:30:30.334Z,6.00
2022-07-25T08:31:30.359Z,6.20
2022-07-25T08:32:30.299Z,7.00
2022-07-25T08:33:30.287Z,5.70
2022-07-25T08:34:30.271Z,6.20
2022-07-25T08:35:30.259Z,6.40
2022-07-25T08:36:34.603Z,6.50
2022-07-25T08:37:30.231Z,5.80
2022-07-25T08:38:30.219Z,6.20
2022-07-25T08:39:30.202Z,5.90
2022-07-25T08:40:30.188Z,6.20
2022-07-25T08:41:30.175Z,5.70
2022-07-25T08:42:30.160Z,6.10
2022-07-25T08:43:30.145Z,5.50
2022-07-25T08:44:30.135Z,5.70
2022-07-25T08:45:30.120Z,5.70
2022-07-25T08:46:30.291Z,6.10
2022-07-25T08:47:30.092Z,6.00
2022-07-25T08:48:30.160Z,5.70
2022-07-25T08:49:30.064Z,6.10
2022-07-25T08:50:30.048Z,6.00
2022-07-25T08:51:30.035Z,6.10
2022-07-25T08:52:30.088Z,6.50
2022-07-25T08:53:34.555Z,6.10
2022-07-25T08:54:30.009Z,5.70
2022-07-25T08:55:29.982Z,6.10
2022-07-25T08:56:29.967Z,5.80
2022-07-25T08:57:29.952Z,6.10
2022-07-25T08:58:29.937Z,6.20
2022-07-25T08:59:29.924Z,6.20
2022-07-25T09:00:29.909Z,6.00
2022-07-25T09:01:34.571Z,6.10
2022-07-25T09:02:30.023Z,6.20
2022-07-25T09:03:29.870Z,6.00
2022-07-25T09:04:29.854Z,6.10
2022-07-25T09:05:29.841Z,6.70
2022-07-25T09:06:29.826Z,5.70
2022-07-25T09:07:29.815Z,5.90
2022-07-25T09:08:29.800Z,6.50
2022-07-25T09:09:29.790Z,6.70
2022-07-25T09:10:29.772Z,6.60
2022-07-25T09:11:29.763Z,5.90
2022-07-25T09:12:29.745Z,6.70
2022-07-25T09:13:29.732Z,6.00
2022-07-25T09:14:29.717Z,6.40
2022-07-25T09:15:29.828Z,6.40
2022-07-25T09:16:29.754Z,6.10
2022-07-25T09:17:29.677Z,6.20
2022-07-25T09:18:29.662Z,6.00
2022-07-25T09:19:29.652Z,6.50
2022-07-25T09:20:29.633Z,6.10
2022-07-25T09:21:29.622Z,6.50
2022-07-25T09:22:29.607Z,5.60
2022-07-25T09:23:29.606Z,6.20
2022-07-25T09:24:29.580Z,6.50
2022-07-25T09:25:29.570Z,6.80
2022-07-25T09:26:29.553Z,5.80
2022-07-25T09:27:29.538Z,6.30
2022-07-25T09:28:29.524Z,6.20
2022-07-25T09:29:29.513Z,6.40
2022-07-25T09:30:29.498Z,6.10
2022-07-25T09:31:29.582Z,6.70
2022-07-25T09:32:29.470Z,6.50
2022-07-25T09:33:29.459Z,6.10
2022-07-25T09:34:29.442Z,6.80
2022-07-25T09:35:29.431Z,6.30
2022-07-25T09:36:29.423Z,5.90
2022-07-25T09:37:29.406Z,6.60
2022-07-25T09:38:29.389Z,6.20
2022-07-25T09:39:29.377Z,5.90
2022-07-25T09:40:29.363Z,6.50
2022-07-25T09:41:29.353Z,6.50
2022-07-25T09:42:29.335Z,6.60
2022-07-25T09:43:29.323Z,6.40
2022-07-25T09:44:29.319Z,6.00
2022-07-25T09:45:31.544Z,6.50
2022-07-25T09:46:29.375Z,6.10
2022-07-25T09:47:29.268Z,6.30
2022-07-25T09:48:29.306Z,6.40
2022-07-25T09:49:29.246Z,6.60
2022-07-25T09:50:29.227Z,6.00
2022-07-25T09:51:29.232Z,6.30
2022-07-25T09:52:29.214Z,5.90
2022-07-25T09:53:29.191Z,6.30
2022-07-25T09:54:29.174Z,6.30
2022-07-25T09:55:29.163Z,6.30
2022-07-25T09:56:29.149Z,5.90
2022-07-25T09:57:29.139Z,6.30
2022-07-25T09:58:29.155Z,6.40
2022-07-25T09:59:29.108Z,5.70
2022-07-25T10:00:29.109Z,5.80
2022-07-25T10:01:29.205Z,6.30
2022-07-25T10:02:29.281Z,6.00
2022-07-25T10:03:29.055Z,6.20
2022-07-25T10:04:29.039Z,6.40
2022-07-25T10:05:29.029Z,6.20
2022-07-25T10:06:29.014Z,6.60
2022-07-25T10:07:31.512Z,6.10
2022-07-25T10:08:28.991Z,5.90
2022-07-25T10:09:28.982Z,6.30
2022-07-25T10:10:28.960Z,6.40
2022-07-25T10:11:28.951Z,6.10
2022-07-25T10:12:28.935Z,5.90
2022-07-25T10:13:28.925Z,6.10
2022-07-25T10:14:28.910Z,6.50
2022-07-25T10:15:28.899Z,5.90
2022-07-25T10:16:29.090Z,6.40
2022-07-25T10:17:28.873Z,6.30
2022-07-25T10:18:28.862Z,6.20
2022-07-25T10:19:28.848Z,5.80
2022-07-25T10:20:28.831Z,6.00
2022-07-25T10:21:29.163Z,6.30
2022-07-25T10:22:53.771Z,6.20
2022-07-25T10:23:28.799Z,6.30
2022-07-25T10:24:28.782Z,6.40
2022-07-25T10:25:28.783Z,6.30
2022-07-25T10:26:28.753Z,6.30
2022-07-25T10:27:28.744Z,6.60
2022-07-25T10:28:28.729Z,7.20
2022-07-25T10:29:28.717Z,6.80
2022-07-25T10:30:28.741Z,6.90
2022-07-25T10:31:28.755Z,7.00
2022-07-25T10:32:28.679Z,7.10
2022-07-25T10:33:28.669Z,7.40
2022-07-25T10:34:28.652Z,6.80
2022-07-25T10:35:28.652Z,6.70
2022-07-25T10:36:28.627Z,7.40
2022-07-25T10:37:28.614Z,6.70
2022-07-25T10:38:28.602Z,7.00
2022-07-25T10:39:28.593Z,6.40
2022-07-25T10:40:28.578Z,6.20
2022-07-25T10:41:28.568Z,6.60
2022-07-25T10:42:28.558Z,6.40
2022-07-25T10:43:28.540Z,6.70
2022-07-25T10:44:28.529Z,7.20
2022-07-25T10:45:28.514Z,6.80
2022-07-25T10:46:28.557Z,6.60
2022-07-25T10:47:28.488Z,6.60
2022-07-25T10:48:28.507Z,6.70
2022-07-25T10:49:32.325Z,6.70
2022-07-25T10:50:53.479Z,6.60
2022-07-25T10:51:28.438Z,7.00
2022-07-25T10:52:28.425Z,6.80
2022-07-25T10:53:28.416Z,6.60
2022-07-25T10:54:28.399Z,7.10
2022-07-25T10:55:28.389Z,6.70
2022-07-25T10:56:28.375Z,7.10
2022-07-25T10:57:32.025Z,6.80
2022-07-25T10:58:28.349Z,6.80
2022-07-25T10:59:28.342Z,6.90
2022-07-25T11:00:28.326Z,6.60
2022-07-25T11:01:28.418Z,6.50
2022-07-25T11:02:28.362Z,6.70
2022-07-25T11:03:28.298Z,7.40
2022-07-25T11:04:28.281Z,7.10
2022-07-25T11:05:28.264Z,6.80
2022-07-25T11:06:28.251Z,7.10
2022-07-25T11:07:28.240Z,7.00
2022-07-25T11:08:28.230Z,7.40
2022-07-25T11:09:28.474Z,7.20
2022-07-25T11:10:28.213Z,6.70
2022-07-25T11:11:28.194Z,6.30
2022-07-25T11:12:28.181Z,6.80
2022-07-25T11:13:28.171Z,7.30
2022-07-25T11:14:28.159Z,6.50
2022-07-25T11:15:28.141Z,6.50
2022-07-25T11:16:28.214Z,7.00
2022-07-25T11:17:28.121Z,7.20
2022-07-25T11:18:28.103Z,7.20
2022-07-25T11:19:28.096Z,7.00
2022-07-25T11:20:28.084Z,7.80
2022-07-25T11:21:28.072Z,7.00
2022-07-25T11:22:28.056Z,7.10
2022-07-25T11:23:28.058Z,6.90
2022-07-25T11:24:28.047Z,6.50
2022-07-25T11:25:28.022Z,7.20
2022-07-25T11:26:28.010Z,6.30
2022-07-25T11:27:28.015Z,5.80
2022-07-25T11:28:27.995Z,6.10
2022-07-25T11:29:27.975Z,6.50
2022-07-25T11:30:27.964Z,7.00
2022-07-25T11:31:27.985Z,6.70
2022-07-25T11:32:27.978Z,6.70
2022-07-25T11:33:27.926Z,7.00
2022-07-25T11:34:28.006Z,6.50
2022-07-25T11:35:27.933Z,6.50
2022-07-25T11:36:27.897Z,6.40
2022-07-25T11:37:27.895Z,6.50
2022-07-25T11:38:27.928Z,6.60
2022-07-25T11:39:27.861Z,5.80
2022-07-25T11:40:27.893Z,6.00
2022-07-25T11:41:27.909Z,5.60
2022-07-25T11:42:27.937Z,5.20
2022-07-25T11:43:27.889Z,5.60
2022-07-25T11:44:27.880Z,5.30
2022-07-25T11:45:27.952Z,5.60
2022-07-25T11:46:27.940Z,5.40
2022-07-25T11:47:27.820Z,5.90
2022-07-25T11:48:27.792Z,5.20
2022-07-25T11:49:27.728Z,5.80
2022-07-25T11:50:27.720Z,4.80
2022-07-25T11:51:27.760Z,5.00
2022-07-25T11:52:27.776Z,4.80
2022-07-25T11:53:27.744Z,4.70
2022-07-25T11:54:27.685Z,5.60
2022-07-25T11:55:28.073Z,5.20
2022-07-25T11:56:43.716Z,4.80
2022-07-25T11:57:27.700Z,5.00
2022-07-25T11:58:27.623Z,4.70
2022-07-25T11:59:27.611Z,4.50
2022-07-25T12:00:27.601Z,4.40
2022-07-25T12:01:27.581Z,4.00
2022-07-25T12:02:27.709Z,4.30
2022-07-25T12:03:27.674Z,4.40
2022-07-25T12:04:27.666Z,4.20
2022-07-25T12:05:27.602Z,4.20
2022-07-25T12:06:27.631Z,4.70
2022-07-25T12:07:27.594Z,4.10
2022-07-25T12:08:27.527Z,4.00
2022-07-25T12:09:27.563Z,4.10
2022-07-25T12:10:27.551Z,4.10
2022-07-25T12:11:27.495Z,4.40
2022-07-25T12:12:27.489Z,3.90
2022-07-25T12:13:27.447Z,4.20
2022-07-25T12:14:30.131Z,4.30
2022-07-25T12:15:27.410Z,4.20
2022-07-25T12:16:27.432Z,4.10
2022-07-25T12:17:27.383Z,4.10
2022-07-25T12:18:27.436Z,4.30
2022-07-25T12:19:27.435Z,4.70
2022-07-25T12:20:27.362Z,4.20
2022-07-25T12:21:27.344Z,4.70
2022-07-25T12:22:27.326Z,4.20
2022-07-25T12:23:27.335Z,4.30
2022-07-25T12:24:27.365Z,4.00
2022-07-25T12:25:30.852Z,4.40
2022-07-25T12:26:27.346Z,4.30
2022-07-25T12:27:27.293Z,4.30
2022-07-25T12:28:27.322Z,4.40
2022-07-25T12:29:27.435Z,4.30
2022-07-25T12:30:27.382Z,4.40
2022-07-25T12:31:27.347Z,4.30
2022-07-25T12:32:27.222Z,4.60
2022-07-25T12:33:27.185Z,4.10
2022-07-25T12:34:27.174Z,4.30
2022-07-25T12:35:27.177Z,4.00
2022-07-25T12:36:27.158Z,3.90
2022-07-25T12:37:27.137Z,3.80
2022-07-25T12:38:27.123Z,4.00
2022-07-25T12:39:27.113Z,4.10
2022-07-25T12:40:27.102Z,4.00
2022-07-25T12:41:27.088Z,4.00
2022-07-25T12:42:27.089Z,4.00
2022-07-25T12:43:27.061Z,4.00
2022-07-25T12:44:27.049Z,3.80
2022-07-25T12:45:27.043Z,4.00
2022-07-25T12:46:27.068Z,3.70
2022-07-25T12:47:27.011Z,3.10
2022-07-25T12:48:27.082Z,3.30
2022-07-25T12:49:26.993Z,3.20
2022-07-25T12:50:26.974Z,3.20
2022-07-25T12:51:26.971Z,3.10
2022-07-25T12:52:26.949Z,3.00
2022-07-25T12:53:26.940Z,2.80
2022-07-25T12:54:26.924Z,2.80
2022-07-25T12:55:26.912Z,3.10
2022-07-25T12:56:26.900Z,2.60
2022-07-25T12:57:26.885Z,2.80
2022-07-25T12:58:26.873Z,2.40
2022-07-25T12:59:26.860Z,2.30
2022-07-25T13:00:26.848Z,2.50
2022-07-25T13:01:26.951Z,2.50
2022-07-25T13:02:26.955Z,2.90
2022-07-25T13:03:26.927Z,2.40
2022-07-25T13:04:26.851Z,2.30
2022-07-25T13:05:26.848Z,2.30
2022-07-25T13:06:26.847Z,2.40
2022-07-25T13:07:26.844Z,2.20
2022-07-25T13:08:26.830Z,2.20
2022-07-25T13:09:26.808Z,2.40
2022-07-25T13:10:26.828Z,2.20
2022-07-25T13:11:26.780Z,2.20
2022-07-25T13:12:26.855Z,2.40
2022-07-25T13:13:26.810Z,2.00
2022-07-25T13:14:26.755Z,2.20
2022-07-25T13:15:26.702Z,2.40
2022-07-25T13:16:26.722Z,2.40
2022-07-25T13:17:27.726Z,2.10
2022-07-25T13:18:26.680Z,2.30